Time;durP1;ratioP1;P1;durP2;ratioP2;P2;SDS_P1;SDS_P2;PMS_P1;PMS_P2;Temp;Humidity;BMP_temperature;BMP_pressure;BME280_temperature;BME280_humidity;BME280_pressure;Samples;Min_cycle;Max_cycle;Signal;HPM_P1;HPM_P2
2021/01/10 00:02:11;;;;;;;51.37;11.90;;;;;;;-0.53;100.00;101737.59;5040337;28;20029;-70
2021/01/10 00:04:37;;;;;;;49.43;12.57;;;;;;;-0.49;100.00;101747.25;5044233;28;20040;-68
2021/01/10 00:07:02;;;;;;;47.40;10.73;;;;;;;-0.49;100.00;101745.56;5032614;28;20032;-70
2021/01/10 00:09:28;;;;;;;47.50;11.47;;;;;;;-0.50;100.00;101748.03;5029531;28;20033;-70
2021/01/10 00:11:53;;;;;;;43.33;11.27;;;;;;;-0.49;100.00;101749.81;5024057;28;20033;-68
2021/01/10 00:14:18;;;;;;;43.60;11.57;;;;;;;-0.47;100.00;101750.81;5043916;28;20495;-68
2021/01/10 00:16:44;;;;;;;38.60;10.87;;;;;;;-0.44;100.00;101753.59;5034674;28;20029;-68
2021/01/10 00:19:10;;;;;;;44.23;12.17;;;;;;;-0.42;100.00;101752.00;5011520;28;20044;-67
2021/01/10 00:21:36;;;;;;;37.93;10.77;;;;;;;-0.41;100.00;101751.19;5026577;28;20067;-67
2021/01/10 00:24:03;;;;;;;46.93;11.83;;;;;;;-0.40;100.00;101741.00;5034756;28;20033;-68
2021/01/10 00:26:36;;;;;;;47.43;11.10;;;;;;;-0.38;100.00;101738.53;5027677;28;20642;-68
2021/01/10 00:29:05;;;;;;;45.73;11.07;;;;;;;-0.35;100.00;101749.03;5041375;28;20291;-67
2021/01/10 00:31:31;;;;;;;42.83;11.13;;;;;;;-0.37;100.00;101740.31;5031644;28;20318;-67
2021/01/10 00:33:57;;;;;;;39.83;10.83;;;;;;;-0.35;100.00;101752.47;5015964;28;20285;-69
2021/01/10 00:36:24;;;;;;;42.03;11.43;;;;;;;-0.33;100.00;101752.56;5023604;28;20279;-69
2021/01/10 00:38:49;;;;;;;45.07;11.30;;;;;;;-0.32;100.00;101754.34;5017850;28;21033;-70
2021/01/10 00:41:15;;;;;;;50.10;11.67;;;;;;;-0.31;100.00;101745.84;5021574;28;20277;-71
2021/01/10 00:43:40;;;;;;;39.87;11.03;;;;;;;-0.31;100.00;101756.13;5017944;28;20040;-67
2021/01/10 00:46:05;;;;;;;42.87;11.07;;;;;;;-0.31;100.00;101751.88;5011080;28;20034;-69
2021/01/10 00:48:31;;;;;;;43.03;11.67;;;;;;;-0.32;100.00;101750.09;5011189;28;20109;-70
2021/01/10 00:50:56;;;;;;;46.77;11.57;;;;;;;-0.31;100.00;101761.25;5012783;28;20413;-68
2021/01/10 00:53:22;;;;;;;40.00;11.60;;;;;;;-0.32;100.00;101749.22;5015378;28;20084;-67
2021/01/10 00:55:47;;;;;;;40.33;9.77;;;;;;;-0.31;100.00;101756.13;5018145;28;20033;-69
2021/01/10 00:58:12;;;;;;;35.00;10.70;;;;;;;-0.33;100.00;101757.72;5026951;28;20033;-68
2021/01/10 01:00:39;;;;;;;31.00;9.97;;;;;;;-0.33;100.00;101757.72;5014265;28;20029;-67
2021/01/10 01:03:05;;;;;;;37.17;10.03;;;;;;;-0.30;100.00;101763.03;5017929;28;20040;-67
2021/01/10 01:05:30;;;;;;;44.20;11.43;;;;;;;-0.29;100.00;101764.81;5019478;28;20682;-70
2021/01/10 01:07:56;;;;;;;36.53;10.17;;;;;;;-0.28;100.00;101760.56;5018031;28;20512;-68
2021/01/10 01:10:21;;;;;;;34.60;10.37;;;;;;;-0.27;100.00;101758.06;5028313;28;20021;-69
2021/01/10 01:12:46;;;;;;;41.50;11.03;;;;;;;-0.27;100.00;101758.06;5026198;28;20025;-68
2021/01/10 01:15:12;;;;;;;45.83;11.13;;;;;;;-0.26;100.00;101749.56;5009137;28;20036;-68
2021/01/10 01:17:38;;;;;;;40.30;11.00;;;;;;;-0.24;100.00;101759.94;5027140;28;20146;-68
2021/01/10 01:20:05;;;;;;;36.10;10.43;;;;;;;-0.25;100.00;101758.16;5024116;28;20784;-68
2021/01/10 01:22:30;;;;;;;39.57;11.33;;;;;;;-0.25;100.00;101765.88;5027078;28;20408;-68
2021/01/10 01:24:56;;;;;;;36.37;9.43;;;;;;;-0.25;100.00;101761.63;5016517;28;20281;-70
2021/01/10 01:27:21;;;;;;;37.93;9.60;;;;;;;-0.26;100.00;101757.28;5027799;28;20121;-68
2021/01/10 01:29:46;;;;;;;38.47;10.37;;;;;;;-0.24;100.00;101763.44;5019242;28;20029;-67
2021/01/10 01:32:12;;;;;;;37.30;10.17;;;;;;;-0.23;100.00;101759.19;5009592;28;20108;-69
2021/01/10 01:34:37;;;;;;;37.87;10.07;;;;;;;-0.23;100.00;101760.06;5026055;28;20029;-67
2021/01/10 01:37:03;;;;;;;31.60;9.67;;;;;;;-0.25;100.00;101761.63;5031536;28;20026;-68
2021/01/10 01:39:29;;;;;;;34.30;9.70;;;;;;;-0.28;100.00;101761.44;5032347;28;20497;-67
2021/01/10 01:41:54;;;;;;;37.03;9.60;;;;;;;-0.24;100.00;101767.66;5036672;28;20304;-69
2021/01/10 01:44:20;;;;;;;28.87;9.23;;;;;;;-0.25;100.00;101766.75;5024979;28;20067;-69
2021/01/10 01:46:45;;;;;;;28.23;8.57;;;;;;;-0.25;100.00;101769.34;5034726;28;20044;-68
2021/01/10 01:49:11;;;;;;;27.50;8.30;;;;;;;-0.19;100.00;101771.41;5025408;28;20040;-69
2021/01/10 01:51:38;;;;;;;29.47;9.03;;;;;;;-0.22;100.00;101774.69;5025525;28;20040;-69
2021/01/10 01:54:04;;;;;;;31.27;8.50;;;;;;;-0.23;100.00;101769.47;5028603;28;21245;-68
2021/01/10 01:56:30;;;;;;;31.57;8.87;;;;;;;-0.26;100.00;101770.13;5038842;28;20294;-69
2021/01/10 01:58:58;;;;;;;34.70;8.27;;;;;;;-0.26;100.00;101767.56;5031665;28;20284;-68
2021/01/10 02:01:27;;;;;;;31.80;8.27;;;;;;;-0.25;100.00;101761.63;5023214;28;20084;-67
2021/01/10 02:04:02;;;;;;;27.53;8.93;;;;;;;-0.26;100.00;101762.41;5033340;28;20759;-67
2021/01/10 02:06:35;;;;;;;27.80;8.23;;;;;;;-0.28;100.00;101752.84;5038013;28;20284;-68
2021/01/10 02:09:05;;;;;;;26.77;8.33;;;;;;;-0.25;100.00;101756.47;5021338;28;20291;-68
2021/01/10 02:11:33;;;;;;;28.60;8.10;;;;;;;-0.27;100.00;101752.03;5018695;28;20299;-68
2021/01/10 02:14:03;;;;;;;29.87;7.57;;;;;;;-0.27;100.00;101763.22;5028856;28;20715;-68
2021/01/10 02:16:28;;;;;;;24.37;7.93;;;;;;;-0.25;100.00;101756.47;5040361;28;20291;-68
2021/01/10 02:18:53;;;;;;;28.03;8.43;;;;;;;-0.26;100.00;101757.28;5034212;28;20348;-69
2021/01/10 02:21:20;;;;;;;28.13;8.17;;;;;;;-0.24;100.00;101757.38;5033767;28;20032;-69
2021/01/10 02:23:46;;;;;;;26.33;7.93;;;;;;;-0.25;100.00;101753.91;5031986;28;20029;-71
2021/01/10 02:26:12;;;;;;;31.00;8.50;;;;;;;-0.25;100.00;101755.59;5028563;28;20291;-69
2021/01/10 02:28:38;;;;;;;25.43;7.97;;;;;;;-0.26;100.00;101754.72;5021983;28;20663;-67
2021/01/10 02:31:05;;;;;;;22.77;8.20;;;;;;;-0.24;100.00;101750.56;5029461;28;20036;-70
2021/01/10 02:33:31;;;;;;;28.37;8.27;;;;;;;-0.25;100.00;101740.19;5032458;28;20287;-70
2021/01/10 02:35:56;;;;;;;30.60;8.03;;;;;;;-0.25;100.00;101741.06;5031467;28;20660;-67
2021/01/10 02:38:37;;;;;;;27.40;8.20;;;;;;;-0.24;100.00;101745.44;5025070;28;20488;-70
2021/01/10 02:41:24;;;;;;;29.70;8.13;;;;;;;-0.25;100.00;101746.19;5027906;28;20185;-68
2021/01/10 02:44:01;;;;;;;28.10;9.00;;;;;;;-0.24;100.00;101753.16;5022048;28;20786;-68
2021/01/10 02:46:27;;;;;;;27.87;8.30;;;;;;;-0.23;100.00;101748.91;5018741;28;20447;-68
2021/01/10 02:48:53;;;;;;;34.27;8.80;;;;;;;-0.22;100.00;101751.56;5051761;28;20337;-69
2021/01/10 02:51:19;;;;;;;31.10;9.23;;;;;;;-0.23;100.00;101749.78;5026307;28;20292;-67
2021/01/10 02:53:44;;;;;;;34.27;9.63;;;;;;;-0.24;100.00;101755.72;5028634;28;20037;-67
2021/01/10 02:56:09;;;;;;;33.00;9.90;;;;;;;-0.23;100.00;101749.78;5026811;28;20412;-67
2021/01/10 02:58:38;;;;;;;31.90;8.73;;;;;;;-0.25;100.00;101743.63;5013003;28;20456;-68
2021/01/10 03:01:07;;;;;;;39.47;8.97;;;;;;;-0.26;100.00;101744.44;5021280;28;20025;-67
2021/01/10 03:03:33;;;;;;;30.27;9.10;;;;;;;-0.33;100.00;101738.03;5040134;28;20288;-68
2021/01/10 03:06:00;;;;;;;30.47;7.97;;;;;;;-0.38;100.00;101738.53;5022705;28;20285;-69
2021/01/10 03:08:28;;;;;;;34.47;8.67;;;;;;;-0.43;100.00;101738.25;5019991;28;20292;-68
2021/01/10 03:10:53;;;;;;;37.17;9.37;;;;;;;-0.47;100.00;101727.72;5024067;28;20403;-69
2021/01/10 03:13:19;;;;;;;33.23;10.47;;;;;;;-0.49;100.00;101730.16;5028777;28;20366;-68
2021/01/10 03:15:45;;;;;;;43.87;9.33;;;;;;;-0.54;100.00;101728.09;5019851;28;20489;-66
2021/01/10 03:18:21;;;;;;;33.00;10.07;;;;;;;-0.66;100.00;101726.53;5021936;28;20041;-69
2021/01/10 03:20:48;;;;;;;43.03;10.63;;;;;;;-0.72;100.00;101726.16;5022275;28;20108;-70
2021/01/10 03:23:14;;;;;;;37.80;10.50;;;;;;;-0.78;100.00;101733.47;5031063;28;20303;-66
2021/01/10 03:25:39;;;;;;;44.50;9.70;;;;;;;-0.88;100.00;101724.28;5021151;28;20567;-67
2021/01/10 03:28:05;;;;;;;44.00;10.90;;;;;;;-0.89;100.00;101721.63;5018553;28;20074;-67
2021/01/10 03:30:31;;;;;;;46.50;10.50;;;;;;;-0.90;100.00;101720.75;5013743;28;20065;-68
2021/01/10 03:32:56;;;;;;;41.90;10.47;;;;;;;-0.78;100.00;101718.06;5034252;28;20028;-67
2021/01/10 03:35:22;;;;;;;55.90;11.07;;;;;;;-0.65;100.00;101718.03;5021068;28;20062;-67
2021/01/10 03:37:47;;;;;;;58.47;12.07;;;;;;;-0.52;100.00;101713.66;5020917;28;20232;-67
2021/01/10 03:40:14;;;;;;;48.03;11.87;;;;;;;-0.42;100.00;101718.59;5024895;28;20479;-67
2021/01/10 03:42:40;;;;;;;46.23;10.80;;;;;;;-0.36;100.00;101716.41;5031350;28;20053;-67
2021/01/10 03:45:07;;;;;;;55.67;11.47;;;;;;;-0.32;100.00;101713.22;5028434;28;20322;-68
2021/01/10 03:47:32;;;;;;;52.77;12.20;;;;;;;-0.30;100.00;101714.22;5021914;28;20029;-68
2021/01/10 03:49:58;;;;;;;51.97;12.50;;;;;;;-0.27;100.00;101716.97;5014558;28;20822;-67
2021/01/10 03:52:23;;;;;;;48.60;11.87;;;;;;;-0.26;100.00;101713.59;5014616;28;20028;-68
2021/01/10 03:54:49;;;;;;;51.70;12.30;;;;;;;-0.23;100.00;101711.22;5025002;28;20030;-67
2021/01/10 03:57:14;;;;;;;52.67;12.43;;;;;;;-0.20;100.00;101713.09;5023197;28;20025;-69
2021/01/10 03:59:40;;;;;;;53.50;12.77;;;;;;;-0.22;100.00;101702.72;5018412;28;20045;-67
2021/01/10 04:02:05;;;;;;;51.73;12.37;;;;;;;-0.18;100.00;101706.34;5014623;28;20030;-66
2021/01/10 04:04:31;;;;;;;54.03;12.57;;;;;;;-0.14;100.00;101709.19;5013817;28;20026;-68
2021/01/10 04:06:56;;;;;;;52.47;12.10;;;;;;;-0.13;100.00;101712.66;5040690;28;20115;-68
2021/01/10 04:09:21;;;;;;;54.20;16.50;;;;;;;-0.14;100.00;101711.75;5051257;28;20047;-67
2021/01/10 04:11:47;;;;;;;65.50;16.53;;;;;;;-0.12;100.00;101715.34;5049698;28;20028;-67
2021/01/10 04:14:12;;;;;;;50.97;11.80;;;;;;;-0.11;100.00;101706.84;5051346;28;20107;-67
2021/01/10 04:16:38;;;;;;;38.50;11.40;;;;;;;-0.11;100.00;101703.38;5039990;28;20029;-68
2021/01/10 04:19:03;;;;;;;48.50;11.97;;;;;;;-0.11;100.00;101708.53;5031796;28;20029;-68
2021/01/10 04:21:36;;;;;;;50.33;10.30;;;;;;;-0.11;100.00;101704.25;5042462;28;20040;-68
2021/01/10 04:24:03;;;;;;;47.40;10.63;;;;;;;-0.08;100.00;101709.59;5051115;28;20036;-68
2021/01/10 04:26:30;;;;;;;43.03;11.53;;;;;;;-0.06;100.00;101701.97;5040618;28;20368;-68
2021/01/10 04:28:55;;;;;;;40.87;10.33;;;;;;;-0.02;100.00;101703.91;5051358;28;20263;-67
2021/01/10 04:31:20;;;;;;;49.57;15.43;;;;;;;-0.02;100.00;101704.78;5039236;28;20299;-69
2021/01/10 04:33:46;;;;;;;43.80;11.70;;;;;;;0.01;100.00;101698.09;5031453;28;20378;-69
2021/01/10 04:36:12;;;;;;;43.00;11.60;;;;;;;-0.01;100.00;101698.84;5024127;28;20033;-67
2021/01/10 04:38:37;;;;;;;33.57;10.20;;;;;;;0.02;100.00;101702.44;5029169;28;20039;-68
2021/01/10 04:41:04;;;;;;;44.40;12.17;;;;;;;0.03;100.00;101693.91;5029817;28;20029;-67
2021/01/10 04:43:30;;;;;;;43.37;11.07;;;;;;;0.04;100.00;101693.13;5030759;28;20037;-68
2021/01/10 04:45:56;;;;;;;38.90;10.50;;;;;;;0.04;100.00;101691.44;5030223;28;20762;-67
2021/01/10 04:48:22;;;;;;;46.70;11.93;;;;;;;0.03;100.00;101697.38;5042137;28;20287;-68
2021/01/10 04:50:48;;;;;;;37.73;11.23;;;;;;;0.05;100.00;101695.78;5048518;28;20563;-69
2021/01/10 04:53:20;;;;;;;46.47;11.50;;;;;;;0.11;100.00;101696.13;5025036;28;20481;-67
2021/01/10 04:55:47;;;;;;;38.65;11.27;;;;;;;0.14;100.00;101690.31;5029546;28;20389;-67
2021/01/10 04:58:13;;;;;;;44.90;11.30;;;;;;;0.15;100.00;101702.38;5025265;28;20096;-68
2021/01/10 05:00:40;;;;;;;41.30;10.67;;;;;;;0.15;100.00;101697.22;5024447;28;20715;-67
2021/01/10 05:03:16;;;;;;;54.83;13.00;;;;;;;0.15;100.00;101700.69;5029278;28;20405;-68
2021/01/10 05:05:42;;;;;;;41.00;11.20;;;;;;;0.15;100.00;101702.38;5032661;28;20279;-67
2021/01/10 05:08:12;;;;;;;42.47;10.13;;;;;;;0.15;100.00;101697.22;5039778;28;20291;-69
2021/01/10 05:10:38;;;;;;;46.40;11.57;;;;;;;0.17;100.00;101700.75;5048316;28;20025;-69
2021/01/10 05:13:05;;;;;;;43.70;11.03;;;;;;;0.16;100.00;101696.41;5050095;28;20804;-67
2021/01/10 05:15:31;;;;;;;40.00;11.77;;;;;;;0.18;100.00;101692.25;5043561;28;20287;-67
2021/01/10 05:17:58;;;;;;;41.50;11.03;;;;;;;0.16;100.00;101696.41;5049302;28;20267;-67
2021/01/10 05:20:25;;;;;;;46.70;12.10;;;;;;;0.17;100.00;101695.63;5032274;28;20271;-68
2021/01/10 05:22:50;;;;;;;41.47;10.60;;;;;;;0.18;100.00;101692.25;5050018;28;20630;-67
2021/01/10 05:25:17;;;;;;;40.37;10.93;;;;;;;0.18;100.00;101702.53;5048897;28;20271;-68
2021/01/10 05:27:47;;;;;;;38.50;11.50;;;;;;;0.15;100.00;101697.22;5050088;28;20029;-69
2021/01/10 05:30:14;;;;;;;40.07;11.27;;;;;;;0.15;100.00;101702.38;5045400;28;20288;-68
2021/01/10 05:32:40;;;;;;;38.47;12.63;;;;;;;0.13;100.00;101688.53;5049927;28;20325;-69
2021/01/10 05:35:06;;;;;;;38.37;12.60;;;;;;;0.11;100.00;101693.56;5049172;28;20650;-68
2021/01/10 05:37:31;;;;;;;39.60;11.40;;;;;;;0.17;100.00;101695.63;5048842;28;20110;-67
2021/01/10 05:39:57;;;;;;;43.50;12.27;;;;;;;0.19;100.00;101691.44;5050130;28;20287;-68
2021/01/10 05:42:29;;;;;;;45.23;11.70;;;;;;;0.21;100.00;101682.13;5045091;28;20395;-68
2021/01/10 05:44:55;;;;;;;43.58;11.48;;;;;;;0.22;100.00;101689.94;5050219;28;20024;-69
2021/01/10 05:47:20;;;;;;;45.83;12.20;;;;;;;0.24;100.00;101687.44;5049051;28;20399;-71
2021/01/10 05:49:54;;;;;;;59.13;14.10;;;;;;;0.28;100.00;101697.16;5050103;28;20031;-67
2021/01/10 05:52:21;;;;;;;45.77;12.47;;;;;;;0.31;100.00;101694.75;5048283;28;20519;-67
2021/01/10 05:54:55;;;;;;;46.43;12.93;;;;;;;0.32;100.00;101690.50;5050273;28;20266;-68
2021/01/10 05:57:28;;;;;;;47.53;12.17;;;;;;;0.34;100.00;101694.91;5030056;28;20306;-67
2021/01/10 05:59:55;;;;;;;47.13;13.23;;;;;;;0.33;100.00;101698.28;5030053;28;20250;-68
2021/01/10 06:02:27;;;;;;;48.70;13.13;;;;;;;0.34;100.00;101700.06;5047527;28;20336;-71
2021/01/10 06:05:16;;;;;;;57.08;13.75;;;;;;;0.35;100.00;101695.81;5031143;28;20347;-70
2021/01/10 06:07:42;;;;;;;51.83;12.77;;;;;;;0.34;100.00;101699.19;5010632;28;20034;-66
2021/01/10 06:10:09;;;;;;;45.37;12.87;;;;;;;0.35;100.00;101696.69;5009893;28;20280;-67
2021/01/10 06:12:35;;;;;;;41.90;12.93;;;;;;;0.34;100.00;101702.63;5048760;28;20855;-67
2021/01/10 06:15:18;;;;;;;51.57;13.10;;;;;;;0.34;100.00;101694.91;5049355;28;20267;-68
2021/01/10 06:17:47;;;;;;;58.73;14.07;;;;;;;0.37;100.00;101691.66;5050362;28;20024;-67
2021/01/10 06:20:34;;;;;;;52.70;13.90;;;;;;;0.33;100.00;101688.00;5047056;28;20347;-69
2021/01/10 06:23:03;;;;;;;50.20;12.77;;;;;;;0.20;100.00;101686.41;5033702;28;20267;-68
2021/01/10 06:25:31;;;;;;;47.20;13.20;;;;;;;0.07;100.00;101688.16;5037000;28;20282;-67
2021/01/10 06:28:10;;;;;;;52.67;12.93;;;;;;;0.01;100.00;101691.25;5053602;28;20268;-67
2021/01/10 06:30:37;;;;;;;51.17;13.37;;;;;;;0.09;100.00;101687.44;5048546;28;20283;-70
2021/01/10 06:33:04;;;;;;;49.03;12.10;;;;;;;0.17;100.00;101686.22;5053067;28;20274;-67
2021/01/10 06:35:38;;;;;;;51.70;12.13;;;;;;;0.27;100.00;101687.66;5049571;28;20283;-67
2021/01/10 06:38:06;;;;;;;46.03;12.53;;;;;;;0.29;100.00;101692.09;5035527;28;20771;-67
2021/01/10 06:40:34;;;;;;;53.47;14.70;;;;;;;0.34;100.00;101691.47;5038736;28;20813;-69
2021/01/10 06:43:04;;;;;;;54.67;13.90;;;;;;;0.37;100.00;101695.13;5026923;28;20280;-67
2021/01/10 06:45:40;;;;;;;57.07;14.03;;;;;;;0.34;100.00;101687.19;5032822;28;20503;-69
2021/01/10 06:48:08;;;;;;;54.67;13.43;;;;;;;0.32;100.00;101685.34;5032757;28;20280;-69
2021/01/10 06:50:34;;;;;;;50.63;13.33;;;;;;;0.34;100.00;101689.78;5020649;28;20291;-70
2021/01/10 06:53:07;;;;;;;52.60;13.67;;;;;;;0.40;100.00;101690.16;5012967;28;20767;-69
2021/01/10 06:55:34;;;;;;;45.30;13.13;;;;;;;0.43;100.00;101692.00;5024348;28;20284;-67
2021/01/10 06:58:09;;;;;;;49.53;13.03;;;;;;;0.46;100.00;101693.06;5032730;28;20303;-67
2021/01/10 07:00:54;;;;;;;53.67;13.57;;;;;;;0.51;100.00;101694.22;5037382;28;20276;-69
2021/01/10 07:03:20;;;;;;;44.40;13.10;;;;;;;0.52;100.00;101689.97;5032486;28;20351;-68
2021/01/10 07:06:07;;;;;;;54.27;12.73;;;;;;;0.53;100.00;101695.19;5036985;28;20374;-67
2021/01/10 07:08:52;;;;;;;45.13;13.37;;;;;;;0.56;100.00;101692.81;5032807;28;20034;-67
2021/01/10 07:11:20;;;;;;;47.93;13.77;;;;;;;0.53;100.00;101697.78;5047117;28;20279;-67
2021/01/10 07:13:57;;;;;;;48.57;13.13;;;;;;;0.55;100.00;101711.63;5052484;28;20557;-67
2021/01/10 07:16:24;;;;;;;51.90;13.90;;;;;;;0.56;100.00;101700.53;5050966;28;20374;-66
2021/01/10 07:19:03;;;;;;;55.47;13.77;;;;;;;0.62;100.00;101706.84;5048993;28;20790;-69
2021/01/10 07:21:49;;;;;;;43.33;12.57;;;;;;;0.59;100.00;101702.38;5049097;28;20507;-68
2021/01/10 07:24:19;;;;;;;46.90;12.80;;;;;;;0.62;100.00;101706.84;5052252;28;20282;-68
2021/01/10 07:26:59;;;;;;;51.80;13.13;;;;;;;0.63;100.00;101704.34;5036774;28;20370;-69
2021/01/10 07:29:43;;;;;;;51.90;13.47;;;;;;;0.61;100.00;101705.94;5031655;28;20272;-67
2021/01/10 07:32:13;;;;;;;50.23;13.83;;;;;;;0.67;100.00;101710.56;5046570;28;20310;-69
2021/01/10 07:34:45;;;;;;;53.83;13.87;;;;;;;0.69;100.00;101709.84;5052666;28;20727;-68
2021/01/10 07:37:30;;;;;;;52.67;13.03;;;;;;;0.69;100.00;101701.22;5052522;28;20319;-68
2021/01/10 07:39:56;;;;;;;50.23;14.03;;;;;;;0.65;100.00;101702.75;5048473;28;20292;-68
2021/01/10 07:42:30;;;;;;;53.40;13.40;;;;;;;0.63;100.00;101698.31;5047453;28;20785;-70
2021/01/10 07:45:00;;;;;;;50.93;12.53;;;;;;;0.67;100.00;101705.41;5052374;28;20024;-68
2021/01/10 07:47:31;;;;;;;48.10;12.87;;;;;;;0.70;100.00;101703.00;5051536;28;20287;-69
2021/01/10 07:50:04;;;;;;;45.57;12.87;;;;;;;0.72;100.00;101709.09;5046258;28;20326;-69
2021/01/10 07:52:42;;;;;;;43.53;11.90;;;;;;;0.73;100.00;101700.63;5011922;28;20406;-68
2021/01/10 07:55:19;;;;;;;52.20;13.47;;;;;;;0.74;100.00;101703.28;5021878;28;20620;-67
2021/01/10 07:58:01;;;;;;;45.50;13.90;;;;;;;0.77;100.00;101705.13;5052061;28;20262;-67
2021/01/10 08:00:33;;;;;;;46.10;13.90;;;;;;;0.78;100.00;101712.06;5047111;28;20306;-70
2021/01/10 08:03:03;;;;;;;47.10;13.55;;;;;;;0.88;100.00;101711.78;5048039;28;20053;-68
2021/01/10 08:05:33;;;;;;;43.00;12.53;;;;;;;0.86;100.00;101714.28;5034058;28;20104;-68
2021/01/10 08:08:00;;;;;;;44.13;12.50;;;;;;;0.83;100.00;101718.34;5011981;28;20315;-68
2021/01/10 08:10:46;;;;;;;37.53;11.47;;;;;;;0.85;100.00;101716.75;5014865;28;20771;-67
2021/01/10 08:13:38;;;;;;;34.87;11.87;;;;;;;0.91;100.00;101717.09;5024994;28;20316;-67
2021/01/10 08:16:11;;;;;;;38.80;12.07;;;;;;;0.96;100.00;101725.06;5027633;28;20753;-67
2021/01/10 08:18:44;;;;;;;35.27;11.57;;;;;;;0.98;100.00;101714.09;5027967;28;20590;-68
2021/01/10 08:21:14;;;;;;;35.80;11.27;;;;;;;1.04;100.00;101722.13;5049286;28;20291;-67
2021/01/10 08:23:42;;;;;;;38.57;10.70;;;;;;;1.09;100.00;101718.16;5050867;28;20298;-67
2021/01/10 08:26:14;;;;;;;37.63;11.33;;;;;;;1.15;100.00;101722.75;5040873;28;20283;-67
2021/01/10 08:28:48;;;;;;;29.98;8.77;;;;;;;1.21;100.00;101722.19;5044425;28;20713;-67
2021/01/10 08:31:16;;;;;;;32.07;9.93;;;;;;;1.28;100.00;101721.72;5045427;28;20381;-68
2021/01/10 08:33:42;;;;;;;29.47;9.63;;;;;;;1.32;100.00;101719.41;5049353;28;20283;-68
2021/01/10 08:36:16;;;;;;;27.93;9.00;;;;;;;1.35;100.00;101722.16;5036168;28;20293;-68
2021/01/10 08:38:45;;;;;;;26.47;8.70;;;;;;;1.38;100.00;101726.59;5049659;28;20271;-67
2021/01/10 08:41:11;;;;;;;25.10;8.40;;;;;;;1.30;100.00;101730.44;5036057;28;20294;-67
2021/01/10 08:43:50;;;;;;;29.10;7.70;;;;;;;1.27;100.00;101728.56;5049157;28;20287;-67
2021/01/10 08:46:16;;;;;;;26.97;7.07;;;;;;;1.26;100.00;101731.06;5050553;28;20036;-69
2021/01/10 08:48:42;;;;;;;25.87;8.47;;;;;;;1.28;100.00;101732.03;5049776;28;20851;-67
2021/01/10 08:51:09;;;;;;;28.27;7.33;;;;;;;1.34;100.00;101734.97;5037121;28;20036;-67
2021/01/10 08:53:42;;;;;;;31.60;9.37;;;;;;;1.40;100.00;101731.03;5030187;28;20292;-67
2021/01/10 08:56:15;;;;;;;24.87;8.27;;;;;;;1.52;100.00;101733.38;5039751;28;20282;-70
2021/01/10 08:58:43;;;;;;;;;;;;;;;1.58;100.00;101731.16;5051278;28;20260;-67
2021/01/10 09:01:26;;;;;;;27.57;8.43;;;;;;;1.58;100.00;101731.16;5039043;28;20494;-67
2021/01/10 09:03:56;;;;;;;29.93;7.77;;;;;;;1.57;100.00;101728.47;5030539;28;20264;-69
2021/01/10 09:06:44;;;;;;;30.17;9.17;;;;;;;1.58;100.00;101731.16;5039794;28;20341;-67
2021/01/10 09:09:51;;;;;;;36.63;10.53;;;;;;;1.59;100.00;101727.78;5018596;28;20288;-69
2021/01/10 09:12:35;;;;;;;30.90;9.20;;;;;;;1.54;100.00;101725.72;5046910;28;20374;-67
2021/01/10 09:15:18;;;;;;;27.37;10.40;;;;;;;1.52;100.00;101725.66;5048127;28;20321;-67
2021/01/10 09:17:47;;;;;;;28.65;8.20;;;;;;;1.51;100.00;101728.16;5046930;28;20371;-67
2021/01/10 09:20:17;;;;;;;25.43;8.17;;;;;;;1.51;100.00;101734.19;5046581;28;20078;-68
2021/01/10 09:22:43;;;;;;;33.33;9.23;;;;;;;1.51;100.00;101733.31;5030160;28;20267;-67
2021/01/10 09:25:14;;;;;;;33.93;9.23;;;;;;;1.52;100.00;101725.66;5029316;28;20272;-68
2021/01/10 09:28:09;;;;;;;32.07;8.87;;;;;;;1.56;100.00;101722.44;5030207;28;20033;-67
2021/01/10 09:30:36;;;;;;;32.43;10.60;;;;;;;1.68;100.00;101727.34;5028381;28;20284;-69
2021/01/10 09:33:07;;;;;;;29.30;8.77;;;;;;;1.85;100.00;101726.59;5050183;28;20548;-67
2021/01/10 09:35:44;;;;;;;24.80;8.23;;;;;;;1.89;100.00;101735.38;5049059;28;20275;-68
2021/01/10 09:38:11;;;;;;;28.17;9.40;;;;;;;1.85;100.00;101741.16;5050004;28;20377;-66
2021/01/10 09:40:36;;;;;;;26.33;8.90;;;;;;;1.82;100.00;101740.97;5042213;28;20272;-68
2021/01/10 09:43:02;;;;;;;23.63;7.53;;;;;;;1.80;100.00;101734.88;5029911;28;20659;-66
2021/01/10 09:45:35;;;;;;;27.97;7.93;;;;;;;1.84;100.00;101739.41;5032214;28;20021;-67
2021/01/10 09:48:03;;;;;;;26.30;8.27;;;;;;;1.86;100.00;101730.06;5048691;28;20041;-68
2021/01/10 09:50:30;;;;;;;26.53;8.53;;;;;;;1.94;100.00;101744.22;5049866;28;20275;-68
2021/01/10 09:52:56;;;;;;;27.17;9.50;;;;;;;1.94;100.00;101731.31;5049475;28;20271;-67
2021/01/10 09:55:25;;;;;;;31.57;10.43;;;;;;;2.16;100.00;101730.75;5050567;28;20280;-69
2021/01/10 09:57:52;;;;;;;28.10;9.57;;;;;;;2.16;100.00;101734.22;5053988;28;20028;-67
2021/01/10 10:00:18;;;;;;;32.40;9.67;;;;;;;2.23;100.00;101735.44;5053076;28;20354;-67
2021/01/10 10:02:44;;;;;;;27.30;8.87;;;;;;;2.25;100.00;101734.72;5052727;28;20683;-67
2021/01/10 10:05:12;;;;;;;24.80;8.57;;;;;;;2.17;100.00;101736.00;5031890;28;20307;-68
2021/01/10 10:07:41;;;;;;;22.33;7.63;;;;;;;2.05;100.00;101727.63;5013921;28;20034;-68
2021/01/10 10:10:31;;;;;;;18.63;7.07;;;;;;;1.99;100.00;101727.31;5015106;28;20276;-67
2021/01/10 10:12:58;;;;;;;21.10;7.50;;;;;;;1.96;100.00;101719.41;5033651;28;20351;-68
2021/01/10 10:15:35;;;;;;;23.87;7.97;;;;;;;2.02;100.00;101725.78;5031653;28;20372;-67
2021/01/10 10:18:01;;;;;;;20.70;7.27;;;;;;;2.07;100.00;101718.28;5019949;28;20342;-67
2021/01/10 10:20:26;;;;;;;18.93;8.07;;;;;;;2.14;100.00;101714.31;5053870;28;20354;-67
2021/01/10 10:22:52;;;;;;;17.87;6.87;;;;;;;2.30;100.00;101716.88;5050958;28;20059;-66
2021/01/10 10:25:17;;;;;;;20.67;6.83;;;;;;;2.41;100.00;101720.00;5032868;28;20040;-68
2021/01/10 10:27:57;;;;;;;16.10;6.20;;;;;;;2.59;100.00;101726.09;5033350;28;20506;-67
2021/01/10 10:30:23;;;;;;;17.77;7.10;;;;;;;2.73;100.00;101719.94;5044518;28;20028;-66
2021/01/10 10:32:49;;;;;;;13.80;5.83;;;;;;;2.76;100.00;101720.06;5033102;28;20348;-67
2021/01/10 10:35:15;;;;;;;19.23;6.57;;;;;;;2.81;100.00;101722.91;5032635;28;20356;-68
2021/01/10 10:37:40;;;;;;;16.20;5.97;;;;;;;2.86;100.00;101717.13;5053412;28;20626;-67
2021/01/10 10:40:07;;;;;;;17.20;6.27;;;;;;;2.96;100.00;101712.44;5050430;28;20043;-68
2021/01/10 10:42:32;;;;;;;16.93;6.90;;;;;;;3.05;100.00;101707.72;5037238;28;20036;-67
2021/01/10 10:44:58;;;;;;;14.87;6.33;;;;;;;3.19;100.00;101702.38;5050688;28;20298;-69
2021/01/10 10:47:23;;;;;;;16.37;5.60;;;;;;;3.40;100.00;101707.69;5042276;28;20021;-70
2021/01/10 10:49:48;;;;;;;14.90;6.00;;;;;;;3.38;100.00;101704.09;5051836;28;20037;-69
2021/01/10 10:52:14;;;;;;;15.40;6.13;;;;;;;3.31;100.00;101702.06;5053000;28;20029;-71
2021/01/10 10:54:40;;;;;;;13.30;5.27;;;;;;;3.41;100.00;101696.53;5051797;28;20036;-70
2021/01/10 10:57:07;;;;;;;16.37;6.07;;;;;;;3.33;100.00;101695.25;5050336;28;20108;-69
2021/01/10 10:59:33;;;;;;;12.47;4.53;;;;;;;3.31;100.00;101691.72;5052669;28;20260;-69
2021/01/10 11:01:58;;;;;;;14.57;5.33;;;;;;;3.39;100.00;101700.75;5035475;28;20628;-69
2021/01/10 11:04:24;;;;;;;11.83;5.17;;;;;;;3.38;100.00;101692.88;5032607;28;20112;-69
2021/01/10 11:06:49;;;;;;;14.13;5.37;;;;;;;3.38;100.00;101693.75;5035654;28;20037;-69
2021/01/10 11:09:15;;;;;;;14.93;5.30;;;;;;;3.39;100.00;101690.41;5032077;28;20219;-70
2021/01/10 11:11:45;;;;;;;12.50;4.77;;;;;;;3.39;100.00;101694.66;5043551;28;20029;-69
2021/01/10 11:14:13;;;;;;;14.87;5.83;;;;;;;3.38;100.00;101688.59;5052456;28;20027;-70
2021/01/10 11:16:41;;;;;;;9.13;4.47;;;;;;;3.37;100.00;101685.94;5051205;28;20782;-70
2021/01/10 11:19:08;;;;;;;9.47;4.40;;;;;;;3.35;100.00;101683.28;5041617;28;20303;-70